Time;durP1;ratioP1;P1;durP2;ratioP2;P2;SDS_P1;SDS_P2;PMS_P1;PMS_P2;Temp;Humidity;BMP_temperature;BMP_pressure;BME280_temperature;BME280_humidity;BME280_pressure;Samples;Min_cycle;Max_cycle;Signal;HPM_P1;HPM_P2
2024/04/05 00:00:56;;;;;;;;;;;;;;;11.38;100.00;101009.69;5110761;28;20436;-40
2024/04/05 00:03:21;;;;;;;17.20;3.83;;;;;;;11.32;100.00;100997.06;5109719;28;19941;-39
2024/04/05 00:05:47;;;;;;;12.93;3.93;;;;;;;11.33;100.00;100991.44;5101608;28;20024;-39
2024/04/05 00:08:12;;;;;;;14.43;4.43;;;;;;;11.22;100.00;100983.28;5096023;28;20277;-39
2024/04/05 00:10:38;;;;;;;16.47;4.60;;;;;;;11.30;100.00;100977.53;5096334;28;20043;-40
2024/04/05 00:13:03;;;;;;;16.73;4.13;;;;;;;11.27;100.00;100969.88;5096136;28;20270;-39
2024/04/05 00:15:29;;;;;;;16.65;4.97;;;;;;;11.20;100.00;100966.47;5095936;28;20032;-39
2024/04/05 00:17:54;;;;;;;18.10;4.80;;;;;;;11.24;100.00;100986.59;5096774;28;20020;-39
2024/04/05 00:20:20;;;;;;;21.90;4.85;;;;;;;11.25;100.00;100985.53;5096646;28;20032;-39
2024/04/05 00:22:45;;;;;;;15.93;4.43;;;;;;;11.26;100.00;100993.41;5096821;28;20162;-40
2024/04/05 00:25:10;;;;;;;15.50;3.97;;;;;;;11.16;100.00;100978.81;5096128;28;20032;-39
2024/04/05 00:27:36;;;;;;;15.73;4.20;;;;;;;11.27;100.00;100996.94;5096000;28;20028;-40
2024/04/05 00:30:01;;;;;;;21.83;4.87;;;;;;;11.27;100.00;100997.78;5096267;28;20277;-40
2024/04/05 00:32:26;;;;;;;16.55;4.40;;;;;;;11.23;100.00;101001.19;5095950;28;20059;-40
2024/04/05 00:34:52;;;;;;;15.38;3.67;;;;;;;11.27;100.00;101000.50;5095773;28;20051;-40
2024/04/05 00:37:17;;;;;;;17.43;4.13;;;;;;;11.28;100.00;100995.91;5095877;28;20035;-40
2024/04/05 00:39:42;;;;;;;18.47;4.33;;;;;;;11.28;100.00;100987.78;5096311;28;20259;-39
2024/04/05 00:42:08;;;;;;;16.50;4.28;;;;;;;11.28;100.00;100985.09;5095913;28;20623;-39
2024/04/05 00:44:33;;;;;;;19.43;4.63;;;;;;;11.31;100.00;100973.78;5095949;28;20102;-40
2024/04/05 00:46:58;;;;;;;16.57;3.97;;;;;;;11.29;100.00;100979.44;5095599;28;20332;-39
2024/04/05 00:49:27;;;;;;;14.10;4.18;;;;;;;11.25;100.00;100978.22;5096369;28;20341;-39
2024/04/05 00:51:54;;;;;;;20.58;4.45;;;;;;;11.28;100.00;100976.97;5095246;28;20020;-39
2024/04/05 00:54:20;;;;;;;19.00;4.95;;;;;;;11.29;100.00;100976.72;5096367;28;20130;-39
2024/04/05 00:56:49;;;;;;;15.30;4.20;;;;;;;11.28;100.00;100976.97;5095356;28;20023;-39
2024/04/05 00:59:17;;;;;;;16.88;3.83;;;;;;;11.27;100.00;100968.00;5095623;28;20051;-40
2024/04/05 01:01:44;;;;;;;14.75;4.10;;;;;;;11.28;100.00;100979.66;5095808;28;20035;-39
2024/04/05 01:04:12;;;;;;;15.35;4.13;;;;;;;11.21;100.00;100962.69;5095580;28;20487;-39
2024/04/05 01:06:38;;;;;;;23.48;4.20;;;;;;;11.26;100.00;100968.22;5095480;28;20028;-39
2024/04/05 01:09:06;;;;;;;16.73;4.82;;;;;;;11.27;100.00;100964.47;5095724;28;20024;-39
2024/04/05 01:11:32;;;;;;;18.98;4.18;;;;;;;11.20;100.00;100964.56;5095145;28;20028;-39
2024/04/05 01:13:57;;;;;;;16.90;3.90;;;;;;;11.20;100.00;100969.16;5095547;28;20078;-40
2024/04/05 01:16:23;;;;;;;19.40;3.95;;;;;;;11.22;100.00;100978.69;5094546;28;20028;-39
2024/04/05 01:18:50;;;;;;;17.70;4.83;;;;;;;11.20;100.00;100982.69;5094590;28;20024;-39
2024/04/05 01:21:16;;;;;;;18.77;4.53;;;;;;;11.16;100.00;100986.91;5095211;28;20299;-40
2024/04/05 01:23:42;;;;;;;14.27;4.05;;;;;;;11.16;100.00;100976.09;5095214;28;20103;-39
2024/04/05 01:26:07;;;;;;;14.90;3.63;;;;;;;11.09;100.00;100971.63;5095245;28;20031;-39
2024/04/05 01:28:32;;;;;;;14.90;3.63;;;;;;;11.05;100.00;100970.41;5094932;28;20023;-39
2024/04/05 01:30:58;;;;;;;13.40;3.95;;;;;;;11.06;100.00;100963.94;5095164;28;20030;-39
2024/04/05 01:33:23;;;;;;;19.13;4.50;;;;;;;11.03;100.00;100955.47;5095488;28;20364;-39
2024/04/05 01:35:48;;;;;;;16.95;3.50;;;;;;;11.08;100.00;100964.56;5095053;28;20031;-40
2024/04/05 01:38:14;;;;;;;17.23;4.20;;;;;;;11.07;100.00;100962.88;5094658;28;20024;-39
2024/04/05 01:40:39;;;;;;;13.95;3.50;;;;;;;11.07;100.00;100968.28;5095206;28;20024;-39
2024/04/05 01:43:04;;;;;;;12.97;4.17;;;;;;;11.03;100.00;100961.72;5094481;28;20043;-39
2024/04/05 01:45:30;;;;;;;17.60;4.27;;;;;;;11.04;100.00;100967.94;5094270;28;20261;-39
2024/04/05 01:47:55;;;;;;;17.15;4.50;;;;;;;11.02;100.00;100970.88;5094475;28;20028;-39
2024/04/05 01:50:20;;;;;;;15.90;4.40;;;;;;;11.01;100.00;100966.53;5094785;28;20461;-39
2024/04/05 01:52:47;;;;;;;15.35;3.88;;;;;;;11.00;100.00;100975.69;5094665;28;20464;-39
2024/04/05 01:55:13;;;;;;;16.25;3.83;;;;;;;10.98;100.00;100961.59;5094607;28;20044;-39
2024/04/05 01:57:38;;;;;;;17.02;4.22;;;;;;;10.97;100.00;100967.22;5094065;28;20031;-39
2024/04/05 02:00:05;;;;;;;13.32;3.78;;;;;;;10.92;100.00;100946.25;5094583;28;20032;-39
2024/04/05 02:02:31;;;;;;;13.27;4.13;;;;;;;10.95;100.00;100948.50;5094099;28;20589;-40
2024/04/05 02:04:56;;;;;;;11.25;3.42;;;;;;;10.96;100.00;100943.91;5093895;28;20028;-39
2024/04/05 02:07:22;;;;;;;17.02;3.67;;;;;;;10.96;100.00;100952.84;5094397;28;20077;-40
2024/04/05 02:09:48;;;;;;;19.08;4.60;;;;;;;10.91;100.00;100941.09;5094347;28;20082;-39
2024/04/05 02:12:15;;;;;;;16.73;4.70;;;;;;;10.79;100.00;100938.34;5094292;28;20345;-39
2024/04/05 02:14:41;;;;;;;15.57;3.60;;;;;;;10.85;100.00;100948.25;5094397;28;20028;-40
2024/04/05 02:17:06;;;;;;;17.42;4.45;;;;;;;10.82;100.00;100954.94;5093922;28;20396;-40
2024/04/05 02:19:32;;;;;;;15.88;3.85;;;;;;;10.76;100.00;100938.81;5094218;28;20055;-40
2024/04/05 02:21:57;;;;;;;;;;;;;;;10.90;100.00;100956.50;5094246;28;20024;-39
2024/04/05 02:24:23;;;;;;;19.33;3.90;;;;;;;10.83;100.00;100958.44;5094048;28;19931;-40
2024/04/05 02:26:48;;;;;;;14.83;4.47;;;;;;;10.80;100.00;100958.94;5093525;28;20028;-40
2024/04/05 02:29:13;;;;;;;16.90;3.70;;;;;;;10.80;100.00;100950.81;5093848;28;20281;-40
2024/04/05 02:31:39;;;;;;;17.43;4.13;;;;;;;10.80;100.00;100951.63;5093778;28;20074;-40
2024/04/05 02:34:05;;;;;;;11.60;3.23;;;;;;;10.81;100.00;100952.47;5094263;28;20670;-40
2024/04/05 02:36:30;;;;;;;16.85;3.65;;;;;;;10.83;100.00;100959.31;5093641;28;20266;-40
2024/04/05 02:38:55;;;;;;;16.80;4.05;;;;;;;10.85;100.00;100961.78;5093673;28;20098;-40
2024/04/05 02:41:21;;;;;;;12.17;4.23;;;;;;;10.82;100.00;100964.91;5093560;28;20032;-40
2024/04/05 02:43:46;;;;;;;13.60;3.30;;;;;;;10.76;100.00;100965.84;5093941;28;20487;-40
2024/04/05 02:46:11;;;;;;;17.80;3.97;;;;;;;10.80;100.00;100956.22;5093268;28;20274;-40
2024/04/05 02:48:37;;;;;;;15.73;3.90;;;;;;;10.82;100.00;100954.94;5093523;28;20178;-40
2024/04/05 02:51:02;;;;;;;15.30;3.93;;;;;;;10.82;100.00;100951.41;5094058;28;20020;-40
2024/04/05 02:53:28;;;;;;;15.80;3.50;;;;;;;10.85;100.00;100964.47;5093723;28;20100;-40
2024/04/05 02:55:53;;;;;;;14.63;4.13;;;;;;;10.87;100.00;100961.53;5093451;28;20353;-40
2024/04/05 02:58:19;;;;;;;13.80;4.00;;;;;;;10.88;100.00;100953.19;5094088;28;20036;-39
2024/04/05 03:00:45;;;;;;;17.75;4.15;;;;;;;10.91;100.00;100960.03;5094156;28;20281;-39
2024/04/05 03:03:11;;;;;;;19.08;4.43;;;;;;;10.92;100.00;100958.97;5093061;28;20464;-39
2024/04/05 03:05:36;;;;;;;14.75;4.30;;;;;;;10.87;100.00;100940.72;5093645;28;20031;-39
2024/04/05 03:08:02;;;;;;;20.08;4.65;;;;;;;10.95;100.00;100951.22;5091894;28;20038;-39
2024/04/05 03:10:29;;;;;;;14.73;3.72;;;;;;;11.00;100.00;100942.41;5093625;28;20024;-39
2024/04/05 03:12:56;;;;;;;21.85;4.65;;;;;;;10.98;100.00;100942.66;5093295;28;20031;-39
2024/04/05 03:15:21;;;;;;;14.80;3.70;;;;;;;11.01;100.00;100941.34;5092929;28;20029;-39
2024/04/05 03:17:47;;;;;;;15.27;3.97;;;;;;;11.05;100.00;100937.94;5093757;28;20111;-39
2024/04/05 03:20:14;;;;;;;16.23;3.90;;;;;;;10.99;100.00;100925.34;5093810;28;20111;-39
2024/04/05 03:22:40;;;;;;;14.23;3.85;;;;;;;11.04;100.00;100938.19;5093215;28;20021;-39
2024/04/05 03:25:06;;;;;;;15.70;4.45;;;;;;;11.11;100.00;100940.78;5093473;28;20032;-40
2024/04/05 03:27:32;;;;;;;;;;;;;;;11.17;100.00;100927.13;5093615;28;20063;-39
2024/04/05 03:29:58;;;;;;;10.68;3.25;;;;;;;11.12;100.00;100927.00;5093136;28;20372;-39
2024/04/05 03:32:23;;;;;;;17.88;4.70;;;;;;;11.14;100.00;100918.69;5093431;28;20024;-39
2024/04/05 03:34:48;;;;;;;12.57;3.03;;;;;;;11.11;100.00;100911.00;5093309;28;20025;-41
2024/04/05 03:37:14;;;;;;;14.80;3.67;;;;;;;11.17;100.00;100915.47;5093053;28;20024;-40
2024/04/05 03:39:39;;;;;;;15.43;4.13;;;;;;;11.22;100.00;100918.31;5093080;28;20071;-41
2024/04/05 03:42:05;;;;;;;16.15;3.65;;;;;;;11.22;100.00;100912.91;5096886;28;20050;-41
2024/04/05 03:44:30;;;;;;;13.02;3.72;;;;;;;11.27;100.00;100913.03;5095896;28;20457;-39
2024/04/05 03:46:56;;;;;;;16.95;3.97;;;;;;;11.26;100.00;100923.03;5112961;28;20361;-39
2024/04/05 03:49:21;;;;;;;13.53;3.70;;;;;;;11.27;100.00;100915.72;5096901;28;20460;-40
2024/04/05 03:51:47;;;;;;;12.18;3.33;;;;;;;11.27;100.00;100913.03;5096748;28;20282;-40
2024/04/05 03:54:13;;;;;;;;;;;;;;;11.33;100.00;100902.09;5097601;28;20406;-40
2024/04/05 03:56:38;;;;;;;14.90;4.10;;;;;;;11.23;100.00;100884.78;5096623;28;19918;-40
2024/04/05 03:59:03;;;;;;;13.57;3.60;;;;;;;11.28;100.00;100901.97;5096685;28;20024;-40
2024/04/05 04:01:29;;;;;;;17.90;4.43;;;;;;;11.28;100.00;100901.97;5096548;28;20059;-41
2024/04/05 04:03:55;;;;;;;16.17;4.20;;;;;;;11.27;100.00;100886.81;5096508;28;20742;-40
2024/04/05 04:06:21;;;;;;;15.60;3.90;;;;;;;11.24;100.00;100876.44;5096347;28;20457;-38
2024/04/05 04:08:47;;;;;;;;;;;;;;;11.33;100.00;100893.16;5097488;28;20030;-39
2024/04/05 04:11:12;;;;;;;11.73;3.83;;;;;;;11.16;100.00;100882.19;5096368;28;19912;-39
2024/04/05 04:13:37;;;;;;;15.50;3.73;;;;;;;11.24;100.00;100887.25;5096857;28;20028;-40
2024/04/05 04:16:03;;;;;;;10.45;3.38;;;;;;;11.25;100.00;100877.25;5096261;28;20274;-39
2024/04/05 04:18:29;;;;;;;13.95;3.78;;;;;;;11.27;100.00;100881.38;5096285;28;20475;-40
2024/04/05 04:20:54;;;;;;;11.90;3.55;;;;;;;11.19;100.00;100861.97;5096286;28;20031;-40
2024/04/05 04:23:20;;;;;;;14.15;3.58;;;;;;;11.27;100.00;100880.53;5096158;28;20032;-40
2024/04/05 04:25:46;;;;;;;16.20;3.88;;;;;;;11.28;100.00;100877.63;5096643;28;20332;-40
2024/04/05 04:28:11;;;;;;;11.48;3.22;;;;;;;11.26;100.00;100887.84;5095722;28;20507;-40
2024/04/05 04:30:37;;;;;;;11.95;3.55;;;;;;;11.25;100.00;100883.50;5096295;28;20040;-40
2024/04/05 04:33:02;;;;;;;16.10;3.97;;;;;;;11.28;100.00;100899.28;5095587;28;20028;-40
2024/04/05 04:35:28;;;;;;;14.23;3.55;;;;;;;11.30;100.00;100907.16;5094816;28;20055;-40
2024/04/05 04:37:53;;;;;;;13.73;4.07;;;;;;;11.31;100.00;100898.78;5095534;28;20036;-40
2024/04/05 04:40:19;;;;;;;13.23;3.58;;;;;;;11.31;100.00;100911.50;5096063;28;20384;-40
2024/04/05 04:42:45;;;;;;;13.65;3.67;;;;;;;11.32;100.00;100900.47;5095629;28;20024;-40
2024/04/05 04:45:10;;;;;;;16.15;4.20;;;;;;;11.33;100.00;100895.88;5095657;28;20030;-40
2024/04/05 04:47:37;;;;;;;11.52;4.22;;;;;;;11.33;100.00;100893.16;5095557;28;20027;-39
2024/04/05 04:50:04;;;;;;;11.13;3.75;;;;;;;11.28;100.00;100874.09;5096721;28;20481;-39
2024/04/05 04:52:30;;;;;;;9.88;3.50;;;;;;;11.36;100.00;100873.72;5095645;28;20396;-39
2024/04/05 04:54:56;;;;;;;11.35;3.42;;;;;;;11.36;100.00;100862.88;5095719;28;20036;-39
2024/04/05 04:57:22;;;;;;;11.45;3.35;;;;;;;11.37;100.00;100872.69;5095433;28;20085;-39
2024/04/05 04:59:48;;;;;;;;;;;;;;;11.44;100.00;100865.25;5095846;28;20024;-40
2024/04/05 05:02:13;;;;;;;15.27;3.67;;;;;;;11.41;100.00;100871.13;5095044;28;19907;-40
2024/04/05 05:04:38;;;;;;;11.63;3.17;;;;;;;11.45;100.00;100868.78;5095325;28;20266;-40
2024/04/05 05:07:06;;;;;;;11.73;3.03;;;;;;;11.43;100.00;100863.63;5094950;28;20032;-40
2024/04/05 05:09:32;;;;;;;9.93;3.35;;;;;;;11.45;100.00;100855.25;5095470;28;20618;-40
2024/04/05 05:11:57;;;;;;;14.20;3.90;;;;;;;11.42;100.00;100851.13;5095716;28;20024;-40
2024/04/05 05:14:23;;;;;;;13.10;3.55;;;;;;;11.46;100.00;100849.59;5094798;28;20478;-40
2024/04/05 05:16:48;;;;;;;;;;;;;;;11.54;100.00;100843.00;5095476;28;20035;-40
2024/04/05 05:19:14;;;;;;;10.45;3.20;;;;;;;11.50;100.00;100837.22;5096146;28;20251;-40
2024/04/05 05:21:39;;;;;;;12.00;3.67;;;;;;;11.48;100.00;100835.81;5094707;28;20059;-40
2024/04/05 05:24:05;;;;;;;11.07;3.30;;;;;;;11.49;100.00;100840.19;5095025;28;20250;-40
2024/04/05 05:26:30;;;;;;;11.80;2.78;;;;;;;11.42;100.00;100828.63;5095183;28;20746;-40
2024/04/05 05:28:56;;;;;;;9.65;3.10;;;;;;;11.50;100.00;100822.84;5095248;28;20380;-39
2024/04/05 05:31:22;;;;;;;13.05;3.60;;;;;;;11.49;100.00;100816.63;5094819;28;20051;-39
2024/04/05 05:33:48;;;;;;;10.10;2.63;;;;;;;11.50;100.00;100807.44;5094758;28;20035;-40
2024/04/05 05:36:13;;;;;;;14.60;3.40;;;;;;;11.51;100.00;100798.25;5094724;28;20069;-40
2024/04/05 05:38:39;;;;;;;11.05;3.45;;;;;;;11.53;100.00;100806.97;5094503;28;20391;-40
2024/04/05 05:41:04;;;;;;;11.32;3.00;;;;;;;11.51;100.00;100792.81;5094662;28;20027;-40
2024/04/05 05:43:30;;;;;;;12.60;3.05;;;;;;;11.44;100.00;100777.78;5095182;28;20059;-40
2024/04/05 05:45:55;;;;;;;8.95;2.85;;;;;;;11.54;100.00;100781.53;5094549;28;20046;-40
2024/04/05 05:48:20;;;;;;;9.93;2.90;;;;;;;11.56;100.00;100781.28;5095352;28;20032;-40
2024/04/05 05:50:46;;;;;;;11.20;2.75;;;;;;;11.59;100.00;100787.06;5094534;28;20027;-40
2024/04/05 05:53:11;;;;;;;12.18;3.13;;;;;;;11.60;100.00;100785.97;5094686;28;20032;-40
2024/04/05 05:55:37;;;;;;;11.15;3.25;;;;;;;11.63;100.00;100764.91;5094918;28;20032;-40
2024/04/05 05:58:02;;;;;;;10.77;3.15;;;;;;;11.59;100.00;100743.72;5094597;28;20028;-40
2024/04/05 06:00:28;;;;;;;10.02;3.05;;;;;;;11.70;100.00;100757.47;5094872;28;20460;-40
2024/04/05 06:02:53;;;;;;;11.52;2.78;;;;;;;11.73;100.00;100755.09;5093355;28;20080;-40
2024/04/05 06:05:22;;;;;;;9.27;2.63;;;;;;;11.77;100.00;100741.91;5094219;28;20115;-40
2024/04/05 06:07:48;;;;;;;11.68;3.25;;;;;;;11.79;100.00;100742.47;5093855;28;20361;-39
2024/04/05 06:10:13;;;;;;;12.10;2.60;;;;;;;11.81;100.00;100740.38;5094086;28;20082;-39
2024/04/05 06:12:41;;;;;;;10.90;2.60;;;;;;;11.77;100.00;100742.72;5094116;28;20098;-39
2024/04/05 06:15:07;;;;;;;14.35;3.40;;;;;;;11.84;100.00;100753.44;5094738;28;20158;-39
2024/04/05 06:17:35;;;;;;;10.90;2.47;;;;;;;11.85;100.00;100738.81;5093774;28;20384;-39
2024/04/05 06:20:01;;;;;;;10.93;3.15;;;;;;;11.91;100.00;100756.84;5093986;28;20056;-39
2024/04/05 06:22:27;;;;;;;10.50;2.60;;;;;;;11.94;100.00;100761.75;5093893;28;20028;-39
2024/04/05 06:24:53;;;;;;;14.38;3.20;;;;;;;11.95;100.00;100757.16;5094197;28;20090;-39
2024/04/05 06:27:20;;;;;;;8.50;2.42;;;;;;;11.95;100.00;100741.72;5093830;28;20058;-39
2024/04/05 06:29:54;;;;;;;8.45;2.72;;;;;;;12.05;100.00;100743.78;5093728;28;20032;-39
2024/04/05 06:32:19;;;;;;;9.23;2.90;;;;;;;12.09;100.00;100734.13;5094325;28;20028;-39
2024/04/05 06:34:45;;;;;;;10.38;2.92;;;;;;;12.14;100.00;100725.25;5093698;28;20430;-39
2024/04/05 06:37:12;;;;;;;10.63;2.67;;;;;;;12.19;100.00;100722.63;5093664;28;20035;-39
2024/04/05 06:39:37;;;;;;;11.00;2.90;;;;;;;12.22;100.00;100716.75;5093965;28;20020;-39
2024/04/05 06:42:04;;;;;;;11.65;2.90;;;;;;;12.28;100.00;100716.56;5093846;28;20085;-39
2024/04/05 06:44:35;;;;;;;7.57;2.70;;;;;;;12.29;100.00;100703.84;5093234;28;20032;-40
2024/04/05 06:47:10;;;;;;;8.50;2.97;;;;;;;12.34;100.00;100710.16;5093861;28;20560;-40
2024/04/05 06:49:40;;;;;;;10.25;2.72;;;;;;;12.30;100.00;100698.19;5093513;28;20107;-40
2024/04/05 06:52:06;;;;;;;10.32;2.60;;;;;;;12.41;100.00;100698.34;5093956;28;20036;-40
2024/04/05 06:54:33;;;;;;;9.63;2.65;;;;;;;12.44;100.00;100697.84;5093858;28;20458;-40
2024/04/05 06:56:59;;;;;;;6.85;2.75;;;;;;;12.49;100.00;100692.50;5093332;28;20028;-40
2024/04/05 06:59:24;;;;;;;;;;;;;;;12.57;100.00;100684.78;5094034;28;20027;-40
2024/04/05 07:01:53;;;;;;;9.30;2.88;;;;;;;12.56;100.00;100674.19;5093446;28;19908;-40
2024/04/05 07:04:23;;;;;;;8.15;2.30;;;;;;;12.59;100.00;100679.94;5093466;28;20032;-40
2024/04/05 07:06:48;;;;;;;11.70;3.63;;;;;;;12.55;100.00;100676.06;5093349;28;20107;-40
2024/04/05 07:09:14;;;;;;;;;;;;;;;12.70;100.00;100696.34;5094573;28;20126;-40
2024/04/05 07:11:39;;;;;;;9.45;2.80;;;;;;;12.67;100.00;100696.84;5093554;28;19908;-39
2024/04/05 07:14:05;;;;;;;7.13;2.50;;;;;;;12.67;100.00;100694.94;5093764;28;20032;-40
2024/04/05 07:16:30;;;;;;;8.80;2.33;;;;;;;12.71;100.00;100690.69;5095844;28;20065;-40
2024/04/05 07:18:56;;;;;;;;;;;;;;;12.79;100.00;100686.72;5097803;28;20031;-40
2024/04/05 07:21:21;;;;;;;6.78;2.33;;;;;;;12.71;100.00;100666.25;5097253;28;20019;-40
2024/04/05 07:23:47;;;;;;;6.38;2.30;;;;;;;12.79;100.00;100679.41;5097818;28;20031;-40
2024/04/05 07:26:13;;;;;;;;;;;;;;;12.87;100.00;100673.53;5097256;28;20464;-40
2024/04/05 07:28:38;;;;;;;8.27;2.80;;;;;;;12.83;100.00;100655.28;5097195;28;19908;-40
2024/04/05 07:31:03;;;;;;;6.97;2.10;;;;;;;12.87;100.00;100661.88;5096750;28;20044;-40
2024/04/05 07:33:29;;;;;;;6.05;2.20;;;;;;;12.89;100.00;100657.84;5097536;28;20064;-40
2024/04/05 07:35:56;;;;;;;7.35;1.80;;;;;;;12.92;100.00;100661.94;5096924;28;20028;-40
2024/04/05 07:38:22;;;;;;;6.68;2.22;;;;;;;12.94;100.00;100642.69;5097593;28;20066;-40
2024/04/05 07:40:48;;;;;;;;;;;;;;;13.02;100.00;100642.25;5097453;28;20020;-40
2024/04/05 07:43:14;;;;;;;8.35;2.03;;;;;;;12.99;100.00;100632.72;5097171;28;19953;-40
2024/04/05 07:45:39;;;;;;;9.50;2.33;;;;;;;12.99;100.00;100630.00;5096899;28;20432;-40
2024/04/05 07:48:05;;;;;;;7.85;1.95;;;;;;;13.02;100.00;100626.78;5096830;28;20081;-40
2024/04/05 07:50:30;;;;;;;9.20;2.20;;;;;;;13.06;100.00;100627.91;5097408;28;20028;-40
2024/04/05 07:52:55;;;;;;;6.88;2.33;;;;;;;13.05;100.00;100631.72;5096880;28;20031;-40
2024/04/05 07:55:21;;;;;;;9.02;2.25;;;;;;;13.02;100.00;100642.25;5096897;28;20480;-40
2024/04/05 07:57:47;;;;;;;8.25;2.10;;;;;;;13.06;100.00;100651.53;5096676;28;20021;-40
2024/04/05 08:00:15;;;;;;;7.50;1.85;;;;;;;13.05;100.00;100630.91;5096928;28;20058;-40
2024/04/05 08:02:46;;;;;;;10.80;3.13;;;;;;;13.06;100.00;100618.94;5096302;28;20032;-40
2024/04/05 08:05:12;;;;;;;5.47;2.13;;;;;;;13.06;100.00;100618.94;5096861;28;20085;-40
2024/04/05 08:07:37;;;;;;;;;;;;;;;13.13;100.00;100598.69;5096545;28;20528;-40
2024/04/05 08:10:03;;;;;;;8.43;2.20;;;;;;;13.03;100.00;100590.44;5096122;28;19908;-39
2024/04/05 08:12:28;;;;;;;6.55;2.15;;;;;;;13.14;100.00;100602.22;5095657;28;20269;-39
2024/04/05 08:14:54;;;;;;;;;;;;;;;13.24;100.00;100604.28;5097298;28;20041;-39
2024/04/05 08:17:19;;;;;;;8.10;2.42;;;;;;;13.19;100.00;100598.75;5096996;28;20003;-39
2024/04/05 08:19:44;;;;;;;12.07;2.72;;;;;;;13.23;100.00;100599.94;5096738;28;20023;-39
2024/04/05 08:22:10;;;;;;;;;;;;;;;13.28;100.00;100591.84;5096623;28;20054;-39
2024/04/05 08:24:35;;;;;;;5.80;1.70;;;;;;;13.26;100.00;100589.34;5095814;28;19912;-39
2024/04/05 08:27:00;;;;;;;9.38;2.42;;;;;;;13.23;100.00;100567.34;5095627;28;20039;-40
2024/04/05 08:29:27;;;;;;;6.88;2.10;;;;;;;13.29;100.00;100575.28;5096061;28;20032;-40
2024/04/05 08:31:52;;;;;;;;;;;;;;;13.36;100.00;100569.63;5096389;28;20024;-40
2024/04/05 08:34:20;;;;;;;6.38;1.63;;;;;;;13.25;100.00;100559.75;5096192;28;19939;-39
2024/04/05 08:36:49;;;;;;;6.25;1.83;;;;;;;13.32;100.00;100584.78;5096961;28;20395;-39
2024/04/05 08:39:17;;;;;;;7.20;1.80;;;;;;;13.30;100.00;100579.63;5095577;28;20024;-39
2024/04/05 08:41:44;;;;;;;5.95;1.67;;;;;;;13.35;100.00;100578.88;5096524;28;20075;-40
2024/04/05 08:44:12;;;;;;;3.78;1.65;;;;;;;13.26;100.00;100577.69;5096568;28;20039;-40
2024/04/05 08:46:38;;;;;;;5.30;1.63;;;;;;;13.37;100.00;100580.25;5095660;28;20387;-39
2024/04/05 08:49:05;;;;;;;6.13;1.70;;;;;;;13.33;100.00;100609.00;5096295;28;20055;-39
2024/04/05 08:51:32;;;;;;;6.00;1.90;;;;;;;13.40;100.00;100641.38;5095607;28;20028;-39
2024/04/05 08:53:58;;;;;;;6.90;2.45;;;;;;;13.40;100.00;100658.50;5095684;28;20111;-39
2024/04/05 08:56:23;;;;;;;;;;;;;;;13.46;100.00;100655.84;5096021;28;20048;-39
2024/04/05 08:58:52;;;;;;;6.22;1.55;;;;;;;13.33;100.00;100654.34;5096347;28;19911;-39
2024/04/05 09:01:17;;;;;;;5.57;1.67;;;;;;;13.40;100.00;100654.97;5095441;28;20058;-39
2024/04/05 09:03:43;;;;;;;5.18;1.88;;;;;;;13.42;100.00;100677.28;5095123;28;20027;-39
2024/04/05 09:06:08;;;;;;;;;;;;;;;13.47;100.00;100669.19;5096313;28;20085;-39
2024/04/05 09:08:43;;;;;;;6.53;1.60;;;;;;;13.43;100.00;100670.75;5095368;28;20372;-39
2024/04/05 09:11:08;;;;;;;4.32;1.38;;;;;;;13.46;100.00;100672.94;5095481;28;20050;-39
2024/04/05 09:13:33;;;;;;;3.07;1.30;;;;;;;13.39;100.00;100647.91;5094763;28;20038;-39
2024/04/05 09:16:01;;;;;;;4.40;1.35;;;;;;;13.44;100.00;100661.53;5095148;28;20319;-39
2024/04/05 09:18:27;;;;;;;5.57;1.60;;;;;;;13.51;100.00;100670.28;5094731;28;20460;-38
2024/04/05 09:20:52;;;;;;;4.82;1.40;;;;;;;13.54;100.00;100677.94;5094995;28;20032;-39
2024/04/05 09:23:18;;;;;;;;;;;;;;;13.57;100.00;100663.88;5095980;28;20032;-39
2024/04/05 09:25:43;;;;;;;6.45;1.50;;;;;;;13.53;100.00;100679.03;5095307;28;19908;-40
2024/04/05 09:28:16;;;;;;;;;;;;;;;13.59;100.00;100661.69;5096164;28;20024;-40
2024/04/05 09:30:43;;;;;;;3.83;1.30;;;;;;;13.55;100.00;100648.88;5094871;28;19920;-40
2024/04/05 09:33:08;;;;;;;5.20;1.35;;;;;;;13.56;100.00;100636.94;5094562;28;20527;-40
2024/04/05 09:35:38;;;;;;;3.97;1.50;;;;;;;13.62;100.00;100663.91;5095253;28;20028;-39
2024/04/05 09:38:04;;;;;;;3.97;1.58;;;;;;;13.63;100.00;100679.13;5093820;28;20020;-39
2024/04/05 09:40:33;;;;;;;;;;;;;;;13.69;100.00;100680.00;5095168;28;20471;-41
2024/04/05 09:43:01;;;;;;;3.85;1.73;;;;;;;13.66;100.00;100669.63;5095378;28;19908;-40
2024/04/05 09:45:30;;;;;;;3.40;1.48;;;;;;;13.70;100.00;100659.09;5094557;28;20111;-40
2024/04/05 09:47:56;;;;;;;4.40;1.45;;;;;;;13.70;100.00;100654.47;5094420;28;20028;-40
2024/04/05 09:50:22;;;;;;;;;;;;;;;13.80;100.00;100634.72;5095499;28;20032;-39
2024/04/05 09:52:53;;;;;;;4.80;1.40;;;;;;;13.86;100.00;100623.66;5094165;28;20011;-39
2024/04/05 09:55:28;;;;;;;4.80;1.27;;;;;;;13.89;100.00;100617.69;5095026;28;20036;-40
2024/04/05 09:57:55;;;;;;;4.55;1.25;;;;;;;14.10;100.00;100615.13;5095148;28;20039;-39
2024/04/05 10:00:24;;;;;;;4.30;1.40;;;;;;;14.15;100.00;100586.13;5094041;28;20028;-39
2024/04/05 10:02:52;;;;;;;3.67;1.20;;;;;;;14.36;100.00;100608.00;5094213;28;20024;-39
2024/04/05 10:05:32;;;;;;;3.45;1.20;;;;;;;14.53;100.00;100614.13;5094509;28;20115;-39
2024/04/05 10:08:09;;;;;;;4.05;1.10;;;;;;;14.63;100.00;100603.28;5093864;28;20074;-40
2024/04/05 10:10:35;;;;;;;3.90;1.23;;;;;;;14.75;100.00;100608.53;5094134;28;20035;-39
2024/04/05 10:13:14;;;;;;;3.28;1.23;;;;;;;14.87;100.00;100619.22;5093863;28;20028;-39
2024/04/05 10:15:52;;;;;;;2.45;1.10;;;;;;;15.01;100.00;100620.38;5094469;28;20024;-40
2024/04/05 10:18:25;;;;;;;4.80;1.10;;;;;;;15.15;100.00;100620.69;5094559;28;20044;-40
2024/04/05 10:21:03;;;;;;;3.15;1.10;;;;;;;15.31;100.00;100640.63;5094064;28;20032;-40
2024/04/05 10:23:29;;;;;;;3.72;1.17;;;;;;;15.45;100.00;100633.59;5093839;28;20019;-39
2024/04/05 10:25:55;;;;;;;;;;;;;;;15.59;100.00;100632.00;5094047;28;20039;-40
2024/04/05 10:28:23;;;;;;;3.60;1.08;;;;;;;15.73;100.00;100620.63;5093895;28;19908;-39
2024/04/05 10:30:49;;;;;;;4.88;1.15;;;;;;;15.88;100.00;100609.72;5093808;28;20032;-40
2024/04/05 10:33:18;;;;;;;;;;;;;;;15.97;100.00;100610.81;5094179;28;20027;-40
2024/04/05 10:35:45;;;;;;;7.95;1.30;;;;;;;15.96;100.00;100612.72;5093974;28;19935;-40
2024/04/05 10:38:10;;;;;;;4.05;1.20;;;;;;;15.92;100.00;100608.09;5093705;28;20024;-40
2024/04/05 10:40:36;;;;;;;;;;;;;;;15.97;100.00;100610.81;5093835;28;20032;-40
2024/04/05 10:43:11;;;;;;;2.60;0.95;;;;;;;15.98;100.00;100611.63;5093371;28;19949;-40
2024/04/05 10:45:41;;;;;;;3.35;1.00;;;;;;;16.03;100.00;100598.81;5094221;28;20353;-40
2024/04/05 10:48:06;;;;;;;3.63;1.00;;;;;;;16.08;100.00;100592.53;5093302;28;20023;-39
2024/04/05 10:50:39;;;;;;;;;;;;;;;16.17;100.00;100610.81;5093830;28;20352;-40
2024/04/05 10:53:05;;;;;;;6.60;1.00;;;;;;;16.16;100.00;100592.00;5092985;28;20376;-39
2024/04/05 10:55:30;;;;;;;;;;;;;;;16.29;100.00;100615.97;5094253;28;20040;-40
2024/04/05 10:57:56;;;;;;;2.13;0.98;;;;;;;16.21;100.00;100609.19;5093528;28;20352;-40
2024/04/05 11:00:21;;;;;;;;;;;;;;;16.26;100.00;100613.00;5093945;28;20372;-40
2024/04/05 11:02:47;;;;;;;2.42;1.00;;;;;;;16.21;100.00;100611.09;5093460;28;20007;-39
2024/04/05 11:05:14;;;;;;;3.85;0.95;;;;;;;16.22;100.00;100602.63;5093661;28;20040;-39
2024/04/05 11:07:44;;;;;;;4.35;1.77;;;;;;;16.19;100.00;100586.78;5093369;28;20031;-40
2024/04/05 11:10:13;;;;;;;2.78;1.23;;;;;;;16.21;100.00;100601.00;5094024;28;20028;-40
2024/04/05 11:12:39;;;;;;;2.92;1.13;;;;;;;16.20;100.00;100613.00;5093316;28;20115;-40
2024/04/05 11:15:04;;;;;;;;;;;;;;;16.23;100.00;100609.72;5094265;28;20031;-40